createdAt,value
2023-02-06T00:00:24.091Z,102336.56
2023-02-06T00:02:50.794Z,102340.00
2023-02-06T00:05:17.331Z,102336.50
2023-02-06T00:07:43.818Z,102334.75
2023-02-06T00:10:10.275Z,102330.41
2023-02-06T00:12:36.823Z,102335.59
2023-02-06T00:15:03.475Z,102329.47
2023-02-06T00:17:29.962Z,102326.03
2023-02-06T00:19:56.372Z,102319.03
2023-02-06T00:22:22.777Z,102321.63
2023-02-06T00:24:49.199Z,102314.69
2023-02-06T00:27:15.628Z,102312.94
2023-02-06T00:29:42.042Z,102307.69
2023-02-06T00:32:08.509Z,102303.34
2023-02-06T00:34:34.967Z,102293.78
2023-02-06T00:37:01.547Z,102287.66
2023-02-06T00:39:28.154Z,102288.53
2023-02-06T00:41:55.731Z,102298.06
2023-02-06T00:44:23.137Z,102298.06
2023-02-06T00:46:49.736Z,102305.91
2023-02-06T00:49:16.449Z,102314.56
2023-02-06T00:51:42.974Z,102313.69
2023-02-06T00:54:09.693Z,102307.56
2023-02-06T00:56:36.232Z,102300.59
2023-02-06T00:59:02.674Z,102299.75
2023-02-06T01:01:29.175Z,102310.19
2023-02-06T01:03:55.672Z,102308.41
2023-02-06T01:06:22.339Z,102314.47
2023-02-06T01:08:48.986Z,102314.47
2023-02-06T01:11:19.157Z,102314.44
2023-02-06T01:13:46.025Z,102310.09
2023-02-06T01:16:15.863Z,102318.78
2023-02-06T01:18:42.754Z,102310.06
2023-02-06T01:21:15.252Z,102310.91
2023-02-06T01:23:42.689Z,102315.25
2023-02-06T01:26:12.186Z,102313.53
2023-02-06T01:28:41.185Z,102315.28
2023-02-06T01:31:17.170Z,102316.09
2023-02-06T01:33:45.082Z,102315.25
2023-02-06T01:36:13.548Z,102312.63
2023-02-06T01:38:41.296Z,102312.63
2023-02-06T01:41:09.338Z,102315.22
2023-02-06T01:43:40.423Z,102313.47
2023-02-06T01:46:07.207Z,102299.53
2023-02-06T01:48:42.947Z,102302.13
2023-02-06T01:51:16.822Z,102304.72
2023-02-06T01:53:45.383Z,102306.44
2023-02-06T01:56:13.161Z,102302.94
2023-02-06T01:58:44.768Z,102299.44
2023-02-06T02:01:11.807Z,102303.75
2023-02-06T02:03:42.168Z,102303.75
2023-02-06T02:06:12.170Z,102311.53
2023-02-06T02:08:45.004Z,102309.78
2023-02-06T02:11:17.387Z,102308.91
2023-02-06T02:13:44.070Z,102310.63
2023-02-06T02:16:28.059Z,102311.47
2023-02-06T02:19:03.828Z,102310.63
2023-02-06T02:21:45.596Z,102303.63
2023-02-06T02:24:21.056Z,102298.44
2023-02-06T02:27:06.320Z,102306.22
2023-02-06T02:30:05.878Z,102288.84
2023-02-06T02:32:50.607Z,102275.81
2023-02-06T02:35:36.265Z,102281.00
2023-02-06T02:38:25.616Z,102288.81
2023-02-06T02:41:04.231Z,102285.34
2023-02-06T02:43:33.413Z,102276.66
2023-02-06T02:46:17.879Z,102282.72
2023-02-06T02:48:48.307Z,102282.78
2023-02-06T02:51:15.547Z,102283.66
2023-02-06T02:53:42.080Z,102283.66
2023-02-06T02:56:22.665Z,102295.81
2023-02-06T02:58:57.286Z,102289.75
2023-02-06T03:01:29.647Z,102301.03
2023-02-06T03:04:00.168Z,102302.78
2023-02-06T03:06:50.656Z,102306.22
2023-02-06T03:09:52.940Z,102304.47
2023-02-06T03:12:32.314Z,102300.19
2023-02-06T03:15:05.332Z,102306.28
2023-02-06T03:17:37.398Z,102308.03
2023-02-06T03:20:06.640Z,102298.47
2023-02-06T03:22:35.620Z,102301.13
2023-02-06T03:25:05.939Z,102285.47
2023-02-06T03:27:33.677Z,102289.88
2023-02-06T03:30:03.149Z,102292.47
2023-02-06T03:32:35.674Z,102287.25
2023-02-06T03:35:08.040Z,102288.16
2023-02-06T03:37:36.262Z,102286.44
2023-02-06T03:40:05.451Z,102289.91
2023-02-06T03:42:36.082Z,102290.78
2023-02-06T03:45:07.848Z,102284.69
2023-02-06T03:47:37.680Z,102289.94
2023-02-06T03:50:06.302Z,102296.91
2023-02-06T03:52:39.705Z,102288.22
2023-02-06T03:55:13.859Z,102297.75
2023-02-06T03:57:44.425Z,102294.31
2023-02-06T04:00:11.731Z,102294.31
2023-02-06T04:02:39.554Z,102299.56
2023-02-06T04:05:06.825Z,102302.19
2023-02-06T04:07:36.273Z,102303.94
2023-02-06T04:10:03.446Z,102299.63
2023-02-06T04:12:29.873Z,102297.88
2023-02-06T04:14:56.413Z,102308.34
2023-02-06T04:17:40.756Z,102317.91
2023-02-06T04:20:10.107Z,102326.66
2023-02-06T04:22:36.638Z,102326.63
2023-02-06T04:25:03.325Z,102324.06
2023-02-06T04:27:29.878Z,102321.47
2023-02-06T04:29:56.372Z,102327.59
2023-02-06T04:32:22.858Z,102330.22
2023-02-06T04:34:49.347Z,102328.53
2023-02-06T04:37:15.868Z,102326.78
2023-02-06T04:39:42.449Z,102311.16
2023-02-06T04:42:08.990Z,102321.59
2023-02-06T04:44:38.423Z,102318.13
2023-02-06T04:47:05.506Z,102316.41
2023-02-06T04:49:32.071Z,102316.44
2023-02-06T04:51:58.556Z,102312.09
2023-02-06T04:54:25.054Z,102312.13
2023-02-06T04:56:51.577Z,102312.13
2023-02-06T04:59:18.051Z,102306.06
2023-02-06T05:01:44.587Z,102304.34
2023-02-06T05:04:11.239Z,102303.47
2023-02-06T05:06:37.873Z,102306.09
2023-02-06T05:11:39.519Z,102295.69
2023-02-06T05:14:06.010Z,102286.09
2023-02-06T05:16:32.666Z,102294.81
2023-02-06T05:18:59.435Z,102282.59
2023-02-06T05:21:26.976Z,102279.13
2023-02-06T05:23:53.569Z,102277.34
2023-02-06T05:26:20.369Z,102272.13
2023-02-06T05:28:47.103Z,102264.25
2023-02-06T05:31:19.988Z,102265.09
2023-02-06T05:33:51.110Z,102263.34
2023-02-06T05:36:19.230Z,102265.94
2023-02-06T05:38:45.828Z,102270.25
2023-02-06T05:41:12.483Z,102271.94
2023-02-06T05:43:39.085Z,102273.66
2023-02-06T05:46:05.608Z,102273.59
2023-02-06T05:48:34.448Z,102270.09
2023-02-06T05:51:01.565Z,102271.75
2023-02-06T05:53:28.177Z,102274.38
2023-02-06T05:55:54.800Z,102276.09
2023-02-06T05:58:21.262Z,102273.47
2023-02-06T06:00:47.701Z,102279.53
2023-02-06T06:03:14.397Z,102281.25
2023-02-06T06:05:40.956Z,102278.66
2023-02-06T06:08:07.503Z,102268.19
2023-02-06T06:10:34.038Z,102281.22
2023-02-06T06:13:00.562Z,102276.88
2023-02-06T06:15:27.052Z,102267.28
2023-02-06T06:17:53.453Z,102262.94
2023-02-06T06:20:20.163Z,102279.50
2023-02-06T06:22:46.671Z,102275.16
2023-02-06T06:25:13.145Z,102274.31
2023-02-06T06:27:39.676Z,102278.66
2023-02-06T06:30:06.655Z,102283.03
2023-02-06T06:32:33.026Z,102280.47
2023-02-06T06:34:59.438Z,102286.59
2023-02-06T06:37:25.855Z,102277.09
2023-02-06T06:39:52.346Z,102282.34
2023-02-06T06:42:18.814Z,102277.19
2023-02-06T06:44:45.311Z,102267.66
2023-02-06T06:47:11.772Z,102263.34
2023-02-06T06:49:38.903Z,102275.56
2023-02-06T06:52:08.829Z,102274.75
2023-02-06T06:54:39.986Z,102266.94
2023-02-06T06:57:06.514Z,102267.84
2023-02-06T06:59:32.985Z,102262.66
2023-02-06T07:01:59.349Z,102265.31
2023-02-06T07:04:29.455Z,102265.34
2023-02-06T07:06:55.945Z,102268.81
2023-02-06T07:09:22.574Z,102261.88
2023-02-06T07:11:48.996Z,102266.28
2023-02-06T07:14:15.831Z,102268.91
2023-02-06T07:16:42.215Z,102268.03
2023-02-06T07:19:09.652Z,102269.78
2023-02-06T07:21:36.079Z,102269.78
2023-02-06T07:24:03.602Z,102274.16
2023-02-06T07:26:30.218Z,102272.41
2023-02-06T07:28:57.049Z,102279.41
2023-02-06T07:31:26.864Z,102274.19
2023-02-06T07:33:53.303Z,102273.31
2023-02-06T07:36:19.838Z,102271.63
2023-02-06T07:38:47.996Z,102267.28
2023-02-06T07:41:14.607Z,102252.50
2023-02-06T07:43:41.183Z,102258.59
2023-02-06T07:46:07.820Z,102259.50
2023-02-06T07:48:34.322Z,102267.34
2023-02-06T07:51:08.639Z,102271.69
2023-02-06T07:53:36.337Z,102269.97
2023-02-06T07:56:08.772Z,102269.13
2023-02-06T07:58:35.141Z,102266.53
2023-02-06T08:01:05.946Z,102272.63
2023-02-06T08:03:33.370Z,102266.53
2023-02-06T08:06:00.169Z,102265.69
2023-02-06T08:08:26.807Z,102270.06
2023-02-06T08:10:53.331Z,102264.84
2023-02-06T08:13:19.767Z,102257.06
2023-02-06T08:15:46.341Z,102260.53
2023-02-06T08:18:12.837Z,102266.66
2023-02-06T08:20:39.366Z,102274.53
2023-02-06T08:23:07.673Z,102273.66
2023-02-06T08:25:34.474Z,102284.16
2023-02-06T08:28:01.286Z,102287.66
2023-02-06T08:30:27.781Z,102290.25
2023-02-06T08:32:54.212Z,102285.91
2023-02-06T08:35:20.682Z,102287.66
2023-02-06T08:37:47.198Z,102285.97
2023-02-06T08:40:13.813Z,102293.00
2023-02-06T08:42:40.646Z,102296.47
2023-02-06T08:45:07.570Z,102302.59
2023-02-06T08:47:34.127Z,102301.75
2023-02-06T08:50:03.143Z,102293.03
2023-02-06T08:52:29.871Z,102288.69
2023-02-06T08:54:56.362Z,102298.28
2023-02-06T08:57:22.915Z,102291.31
2023-02-06T08:59:50.006Z,102290.44
2023-02-06T09:02:16.618Z,102295.66
2023-02-06T09:04:43.327Z,102299.19
2023-02-06T09:07:09.847Z,102296.56
2023-02-06T09:09:36.521Z,102307.94
2023-02-06T09:12:03.965Z,102304.41
2023-02-06T09:14:31.310Z,102311.41
2023-02-06T09:16:58.447Z,102302.69
2023-02-06T09:19:25.889Z,102304.41
2023-02-06T09:21:52.514Z,102300.06
2023-02-06T09:24:19.202Z,102300.06
2023-02-06T09:26:58.996Z,102307.91
2023-02-06T09:29:28.818Z,102304.41
2023-02-06T09:31:57.138Z,102304.41
2023-02-06T09:34:25.734Z,102307.03
2023-02-06T09:36:54.433Z,102301.81
2023-02-06T09:39:21.045Z,102309.66
2023-02-06T09:41:52.190Z,102297.41
2023-02-06T09:44:21.531Z,102298.31
2023-02-06T09:46:53.225Z,102300.94
2023-02-06T09:49:36.157Z,102300.06
2023-02-06T09:52:10.549Z,102297.44
2023-02-06T09:54:53.854Z,102297.44
2023-02-06T09:57:42.145Z,102300.91
2023-02-06T10:00:15.970Z,102305.28
2023-02-06T10:03:19.634Z,102300.03
2023-02-06T10:05:49.804Z,102297.44
2023-02-06T10:08:16.220Z,102297.41
2023-02-06T10:10:52.443Z,102307.03
2023-02-06T10:13:57.246Z,102299.16
2023-02-06T10:16:40.949Z,102300.91
2023-02-06T10:19:36.612Z,102303.53
2023-02-06T10:22:45.082Z,102302.63
2023-02-06T10:25:15.417Z,102300.88
2023-02-06T10:27:44.411Z,102299.16
2023-02-06T10:30:22.413Z,102290.41
2023-02-06T10:32:59.534Z,102283.41
2023-02-06T10:35:38.035Z,102272.94
2023-02-06T10:38:23.313Z,102267.66
2023-02-06T10:40:58.306Z,102271.19
2023-02-06T10:43:53.289Z,102274.66
2023-02-06T10:46:46.173Z,102266.75
2023-02-06T10:49:22.100Z,102276.34
2023-02-06T10:51:56.344Z,102261.47
2023-02-06T10:54:36.574Z,102258.84
2023-02-06T10:57:04.793Z,102253.59
2023-02-06T10:59:35.210Z,102248.34
2023-02-06T11:02:07.582Z,102244.84
2023-02-06T11:04:39.419Z,102236.03
2023-02-06T11:07:18.444Z,102241.28
2023-02-06T11:09:45.149Z,102253.50
2023-02-06T11:12:24.140Z,102243.91
2023-02-06T11:14:54.483Z,102250.88
2023-02-06T11:17:23.614Z,102252.59
2023-02-06T11:19:53.026Z,102250.81
2023-02-06T11:22:33.329Z,102257.84
2023-02-06T11:25:31.693Z,102260.47
2023-02-06T11:28:00.023Z,102261.31
2023-02-06T11:30:37.509Z,102262.19
2023-02-06T11:33:18.549Z,102253.44
2023-02-06T11:35:58.996Z,102247.31
2023-02-06T11:38:29.440Z,102243.78
2023-02-06T11:41:16.362Z,102241.16
2023-02-06T11:43:42.645Z,102240.25
2023-02-06T11:46:31.038Z,102235.00
2023-02-06T11:48:58.510Z,102241.06
2023-02-06T11:51:25.886Z,102247.16
2023-02-06T11:54:01.004Z,102241.03
2023-02-06T11:56:29.880Z,102246.25
2023-02-06T11:59:21.373Z,102242.75
2023-02-06T12:01:49.075Z,102243.63
2023-02-06T12:04:27.062Z,102247.09
2023-02-06T12:07:03.000Z,102241.91
2023-02-06T12:09:29.554Z,102235.75
2023-02-06T12:12:06.271Z,102238.38
2023-02-06T12:14:50.493Z,102234.88
2023-02-06T12:17:26.943Z,102231.34
2023-02-06T12:20:06.944Z,102227.88
2023-02-06T12:22:41.342Z,102236.59
2023-02-06T12:25:24.729Z,102237.47
2023-02-06T12:27:55.237Z,102230.44
2023-02-06T12:30:47.678Z,102223.47
2023-02-06T12:33:18.608Z,102232.16
2023-02-06T12:36:00.662Z,102225.16
2023-02-06T12:38:48.224Z,102220.69
2023-02-06T12:41:42.433Z,102229.28
2023-02-06T12:44:30.626Z,102226.50
2023-02-06T12:47:16.035Z,102219.41
2023-02-06T12:49:52.373Z,102217.56
2023-02-06T12:52:49.964Z,102218.44
2023-02-06T12:55:16.419Z,102221.88
2023-02-06T12:57:43.238Z,102223.63
2023-02-06T13:00:46.769Z,102225.44
2023-02-06T13:03:16.006Z,102225.44
2023-02-06T13:05:46.936Z,102224.59
2023-02-06T13:08:18.592Z,102222.00
2023-02-06T13:10:45.318Z,102227.25
2023-02-06T13:13:35.571Z,102229.97
2023-02-06T13:16:02.838Z,102223.81
2023-02-06T13:18:41.416Z,102243.97
2023-02-06T13:21:13.951Z,102233.47
2023-02-06T13:23:50.419Z,102230.81
2023-02-06T13:26:16.899Z,102213.31
2023-02-06T13:28:56.708Z,102210.72
2023-02-06T13:31:26.603Z,102212.47
2023-02-06T13:34:07.266Z,102209.00
2023-02-06T13:37:18.875Z,102216.03
2023-02-06T13:40:09.016Z,102211.63
2023-02-06T13:42:43.094Z,102209.94
2023-02-06T13:45:25.865Z,102208.25
2023-02-06T13:48:04.946Z,102207.38
2023-02-06T13:50:46.540Z,102197.78
2023-02-06T13:53:15.863Z,102204.81
2023-02-06T13:55:58.054Z,102201.31
2023-02-06T13:58:48.284Z,102198.69
2023-02-06T14:01:19.970Z,102193.44
2023-02-06T14:03:52.686Z,102188.19
2023-02-06T14:06:37.761Z,102186.47
2023-02-06T14:09:54.480Z,102180.19
2023-02-06T14:12:39.205Z,102184.28
2023-02-06T14:15:21.738Z,102182.19
2023-02-06T14:18:03.208Z,102181.72
2023-02-06T14:20:41.867Z,102182.88
2023-02-06T14:23:42.096Z,102190.09
2023-02-06T14:26:39.748Z,102191.91
2023-02-06T14:29:40.246Z,102195.44
2023-02-06T14:32:12.551Z,102185.94
2023-02-06T14:34:49.855Z,102185.72
2023-02-06T14:37:59.540Z,102187.41
2023-02-06T14:40:34.590Z,102195.38
2023-02-06T14:43:04.990Z,102187.63
2023-02-06T14:45:42.093Z,102187.16
2023-02-06T14:48:19.818Z,102190.16
2023-02-06T14:50:51.175Z,102196.69
2023-02-06T14:53:25.225Z,102198.84
2023-02-06T14:55:52.125Z,102191.28
2023-02-06T14:58:28.034Z,102192.59
2023-02-06T15:00:56.477Z,102187.56
2023-02-06T15:03:27.290Z,102186.97
2023-02-06T15:06:04.565Z,102187.25
2023-02-06T15:08:32.618Z,102189.19
2023-02-06T15:11:07.783Z,102184.09
2023-02-06T15:13:35.392Z,102171.13
2023-02-06T15:16:05.737Z,102173.00
2023-02-06T15:18:35.685Z,102169.53
2023-02-06T15:21:05.417Z,102170.47
2023-02-06T15:23:42.862Z,102167.91
2023-02-06T15:26:21.114Z,102169.72
2023-02-06T15:28:47.961Z,102172.44
2023-02-06T15:31:23.913Z,102163.75
2023-02-06T15:33:53.597Z,102162.88
2023-02-06T15:36:23.757Z,102163.81
2023-02-06T15:38:50.920Z,102170.78
2023-02-06T15:41:18.124Z,102164.69
2023-02-06T15:43:46.710Z,102173.50
2023-02-06T15:46:14.568Z,102185.78
2023-02-06T15:48:51.197Z,102184.97
2023-02-06T15:51:30.001Z,102191.16
2023-02-06T15:54:19.361Z,102181.66
2023-02-06T15:56:51.183Z,102174.69
2023-02-06T15:59:24.172Z,102176.47
2023-02-06T16:01:51.276Z,102178.25
2023-02-06T16:04:24.157Z,102180.06
2023-02-06T16:07:07.441Z,102189.78
2023-02-06T16:09:42.355Z,102179.31
2023-02-06T16:12:09.685Z,102182.84
2023-02-06T16:14:40.018Z,102175.94
2023-02-06T16:17:23.925Z,102175.16
2023-02-06T16:20:02.907Z,102183.06
2023-02-06T16:22:32.451Z,102177.84
2023-02-06T16:25:24.612Z,102177.94
2023-02-06T16:27:52.206Z,102174.50
2023-02-06T16:30:28.954Z,102169.34
2023-02-06T16:32:57.154Z,102174.66
2023-02-06T16:35:24.690Z,102166.81
2023-02-06T16:37:53.210Z,102162.53
2023-02-06T16:40:22.107Z,102167.84
2023-02-06T16:42:48.819Z,102163.50
2023-02-06T16:45:26.527Z,102157.47
2023-02-06T16:47:54.363Z,102155.75
2023-02-06T16:50:21.687Z,102165.41
2023-02-06T16:52:53.884Z,102161.97
2023-02-06T16:55:24.253Z,102164.59
2023-02-06T16:57:58.776Z,102165.50
2023-02-06T17:00:31.138Z,102169.88
2023-02-06T17:02:58.900Z,102172.53
2023-02-06T17:05:28.326Z,102170.81
2023-02-06T17:07:55.325Z,102174.31
2023-02-06T17:13:13.655Z,102183.94
2023-02-06T17:15:40.403Z,102181.31
2023-02-06T17:18:06.952Z,102177.84
2023-02-06T17:20:36.968Z,102176.13
2023-02-06T17:23:04.212Z,102173.50
2023-02-06T17:25:31.420Z,102179.66
2023-02-06T17:27:58.700Z,102177.91
2023-02-06T17:30:43.683Z,102177.03
2023-02-06T17:33:10.502Z,102183.13
2023-02-06T17:35:38.223Z,102177.03
2023-02-06T17:38:06.934Z,102189.25
2023-02-06T17:40:37.981Z,102176.16
2023-02-06T17:43:06.948Z,102173.53
2023-02-06T17:45:37.199Z,102181.41
2023-02-06T17:48:04.365Z,102184.03
2023-02-06T17:50:30.890Z,102184.03
2023-02-06T17:52:58.939Z,102192.75
2023-02-06T17:55:27.420Z,102191.91
2023-02-06T17:57:54.530Z,102189.28
2023-02-06T18:00:25.893Z,102185.78
2023-02-06T18:02:53.932Z,102191.91
2023-02-06T18:05:21.674Z,102191.00
2023-02-06T18:07:50.574Z,102192.78
2023-02-06T18:10:22.687Z,102195.38
2023-02-06T18:12:49.276Z,102190.13
2023-02-06T18:15:16.365Z,102193.63
2023-02-06T18:17:43.336Z,102196.25
2023-02-06T18:20:11.581Z,102189.28
2023-02-06T18:22:44.017Z,102192.78
2023-02-06T18:25:13.478Z,102197.13
2023-02-06T18:27:41.424Z,102195.38
2023-02-06T18:30:09.511Z,102191.03
2023-02-06T18:32:38.443Z,102191.91
2023-02-06T18:35:06.369Z,102193.63
2023-02-06T18:37:33.044Z,102184.94
2023-02-06T18:39:59.547Z,102186.66
2023-02-06T18:42:44.292Z,102186.63
2023-02-06T18:45:10.728Z,102170.09
2023-02-06T18:47:39.019Z,102177.06
2023-02-06T18:50:06.111Z,102171.84
2023-02-06T18:52:32.617Z,102177.94
2023-02-06T18:54:59.066Z,102178.81
2023-02-06T18:57:25.576Z,102180.56
2023-02-06T18:59:52.056Z,102177.91
2023-02-06T19:02:18.539Z,102181.38
2023-02-06T19:04:45.129Z,102177.00
2023-02-06T19:07:11.743Z,102195.28
2023-02-06T19:09:39.176Z,102189.19
2023-02-06T19:12:05.938Z,102189.19
2023-02-06T19:14:32.425Z,102198.75
2023-02-06T19:16:59.194Z,102196.13
2023-02-06T19:19:25.770Z,102196.13
2023-02-06T19:21:52.287Z,102198.72
2023-02-06T19:24:18.846Z,102192.59
2023-02-06T19:26:45.743Z,102183.91
2023-02-06T19:29:34.831Z,102189.97
2023-02-06T19:32:04.911Z,102196.03
2023-02-06T19:34:46.753Z,102191.69
2023-02-06T19:37:13.785Z,102193.44
2023-02-06T19:39:41.276Z,102202.13
2023-02-06T19:42:09.941Z,102200.38
2023-02-06T19:44:39.738Z,102201.25
2023-02-06T19:47:06.266Z,102210.78
2023-02-06T19:49:32.698Z,102209.91
2023-02-06T19:51:59.789Z,102207.28
2023-02-06T19:54:26.527Z,102207.25
2023-02-06T19:56:53.225Z,102227.28
2023-02-06T19:59:26.106Z,102223.78
2023-02-06T20:01:54.071Z,102227.25
2023-02-06T20:04:23.152Z,102215.06
2023-02-06T20:06:51.265Z,102218.53
2023-02-06T20:09:20.218Z,102221.09
2023-02-06T20:11:48.268Z,102224.56
2023-02-06T20:14:15.157Z,102221.97
2023-02-06T20:16:42.562Z,102227.16
2023-02-06T20:19:16.481Z,102233.22
2023-02-06T20:21:46.318Z,102225.34
2023-02-06T20:24:18.400Z,102230.56
2023-02-06T20:26:45.145Z,102223.59
2023-02-06T20:29:20.433Z,102219.19
2023-02-06T20:31:47.790Z,102224.38
2023-02-06T20:34:14.406Z,102225.22
2023-02-06T20:36:41.863Z,102227.81
2023-02-06T20:39:11.437Z,102239.97
2023-02-06T20:41:38.270Z,102234.72
2023-02-06T20:44:05.173Z,102241.69
2023-02-06T20:46:32.664Z,102232.09
2023-02-06T20:49:00.924Z,102232.06
2023-02-06T20:51:28.585Z,102227.72
2023-02-06T20:53:55.558Z,102226.84
2023-02-06T20:56:23.192Z,102225.97
2023-02-06T20:58:51.016Z,102231.16
2023-02-06T21:01:23.016Z,102228.50
2023-02-06T21:03:51.546Z,102234.59
2023-02-06T21:06:18.262Z,102236.31
2023-02-06T21:08:50.171Z,102236.28
2023-02-06T21:11:17.199Z,102240.63
2023-02-06T21:13:43.767Z,102234.50
2023-02-06T21:16:13.452Z,102231.88
2023-02-06T21:18:42.481Z,102234.44
2023-02-06T21:21:12.090Z,102240.50
2023-02-06T21:23:39.752Z,102234.41
2023-02-06T21:26:07.709Z,102236.13
2023-02-06T21:28:35.496Z,102237.81
2023-02-06T21:31:05.644Z,102227.34
2023-02-06T21:33:32.192Z,102227.34
2023-02-06T21:35:58.702Z,102228.22
2023-02-06T21:38:25.213Z,102231.66
2023-02-06T21:40:51.711Z,102237.75
2023-02-06T21:43:18.287Z,102236.84
2023-02-06T21:45:47.832Z,102236.81
2023-02-06T21:48:14.895Z,102242.88
2023-02-06T21:50:41.690Z,102246.31
2023-02-06T21:53:09.241Z,102241.94
2023-02-06T21:55:41.915Z,102241.06
2023-02-06T21:58:08.746Z,102230.63
2023-02-06T22:00:35.399Z,102232.34
2023-02-06T22:03:02.207Z,102228.84
2023-02-06T22:05:29.193Z,102234.88
2023-02-06T22:07:56.794Z,102234.88
2023-02-06T22:10:23.298Z,102223.53
2023-02-06T22:12:49.710Z,102229.59
2023-02-06T22:15:16.159Z,102230.44
2023-02-06T22:17:42.639Z,102234.72
2023-02-06T22:20:09.424Z,102239.06
2023-02-06T22:22:37.202Z,102234.69
2023-02-06T22:25:03.760Z,102229.41
2023-02-06T22:27:33.074Z,102235.44
2023-02-06T22:29:59.533Z,102238.03
2023-02-06T22:32:26.009Z,102236.25
2023-02-06T22:34:53.868Z,102243.19
2023-02-06T22:37:20.339Z,102239.66
2023-02-06T22:39:46.830Z,102232.66
2023-02-06T22:42:13.287Z,102244.81
2023-02-06T22:44:39.877Z,102243.91
2023-02-06T22:47:06.379Z,102244.72
2023-02-06T22:49:32.926Z,102243.81
2023-02-06T22:51:59.303Z,102243.78
2023-02-06T22:54:25.766Z,102249.84
2023-02-06T22:56:52.190Z,102252.41
2023-02-06T22:59:23.222Z,102246.31
2023-02-06T23:01:52.621Z,102251.47
2023-02-06T23:04:28.194Z,102247.97
2023-02-06T23:06:55.454Z,102252.31
2023-02-06T23:09:24.860Z,102259.22
2023-02-06T23:11:52.452Z,102252.22
2023-02-06T23:14:19.691Z,102250.44
2023-02-06T23:16:47.139Z,102256.47
2023-02-06T23:19:14.436Z,102243.41
2023-02-06T23:21:42.462Z,102241.59
2023-02-06T23:24:09.878Z,102246.75
2023-02-06T23:26:37.474Z,102246.69
2023-02-06T23:29:06.738Z,102253.63
2023-02-06T23:31:34.166Z,102246.66
2023-02-06T23:34:00.803Z,102250.13
2023-02-06T23:36:28.641Z,102250.94
2023-02-06T23:38:55.510Z,102257.84
2023-02-06T23:41:27.385Z,102256.06
2023-02-06T23:43:56.598Z,102262.97
2023-02-06T23:46:23.829Z,102265.56
2023-02-06T23:48:50.892Z,102261.22
2023-02-06T23:51:21.591Z,102259.50
2023-02-06T23:53:48.900Z,102246.50
2023-02-06T23:56:18.596Z,102249.06
2023-02-06T23:58:45.719Z,102258.56
